sensor_id;sensor_type;location;lat;lon;timestamp;P1;durP1;ratioP1;P2;durP2;ratioP2
22648;SDS011;11491;41.942;24.220;2023-11-21T00:02:04;18.13;;;11.20;;
22648;SDS011;11491;41.942;24.220;2023-11-21T00:04:31;18.55;;;10.48;;
22648;SDS011;11491;41.942;24.220;2023-11-21T00:06:57;18.92;;;11.85;;
22648;SDS011;11491;41.942;24.220;2023-11-21T00:09:24;17.63;;;9.88;;
22648;SDS011;11491;41.942;24.220;2023-11-21T00:11:51;14.93;;;9.50;;
22648;SDS011;11491;41.942;24.220;2023-11-21T00:14:19;16.40;;;10.32;;
22648;SDS011;11491;41.942;24.220;2023-11-21T00:16:45;21.55;;;13.25;;
22648;SDS011;11491;41.942;24.220;2023-11-21T00:19:12;19.80;;;11.93;;
22648;SDS011;11491;41.942;24.220;2023-11-21T00:21:39;19.65;;;12.10;;
22648;SDS011;11491;41.942;24.220;2023-11-21T00:24:09;18.02;;;9.35;;
22648;SDS011;11491;41.942;24.220;2023-11-21T00:26:38;9.90;;;5.82;;
22648;SDS011;11491;41.942;24.220;2023-11-21T00:29:05;10.75;;;6.20;;
22648;SDS011;11491;41.942;24.220;2023-11-21T00:31:34;9.65;;;4.85;;
22648;SDS011;11491;41.942;24.220;2023-11-21T00:34:02;12.68;;;6.47;;
22648;SDS011;11491;41.942;24.220;2023-11-21T00:36:30;10.80;;;6.22;;
22648;SDS011;11491;41.942;24.220;2023-11-21T00:38:57;14.52;;;7.13;;
22648;SDS011;11491;41.942;24.220;2023-11-21T00:41:24;10.30;;;6.03;;
22648;SDS011;11491;41.942;24.220;2023-11-21T00:43:52;11.15;;;6.15;;
22648;SDS011;11491;41.942;24.220;2023-11-21T00:46:20;13.38;;;7.43;;
22648;SDS011;11491;41.942;24.220;2023-11-21T00:48:48;10.07;;;5.93;;
22648;SDS011;11491;41.942;24.220;2023-11-21T00:51:15;10.80;;;5.88;;
22648;SDS011;11491;41.942;24.220;2023-11-21T00:53:42;12.48;;;6.80;;
22648;SDS011;11491;41.942;24.220;2023-11-21T00:56:08;11.55;;;6.22;;
22648;SDS011;11491;41.942;24.220;2023-11-21T00:58:35;7.50;;;4.43;;
22648;SDS011;11491;41.942;24.220;2023-11-21T01:01:02;5.45;;;2.97;;
22648;SDS011;11491;41.942;24.220;2023-11-21T01:03:29;13.57;;;7.15;;
22648;SDS011;11491;41.942;24.220;2023-11-21T01:05:57;16.27;;;9.45;;
22648;SDS011;11491;41.942;24.220;2023-11-21T01:08:24;7.03;;;4.40;;
22648;SDS011;11491;41.942;24.220;2023-11-21T01:10:50;3.65;;;2.10;;
22648;SDS011;11491;41.942;24.220;2023-11-21T01:13:17;3.28;;;1.75;;
22648;SDS011;11491;41.942;24.220;2023-11-21T01:15:44;5.85;;;3.75;;
22648;SDS011;11491;41.942;24.220;2023-11-21T01:18:11;6.18;;;4.18;;
22648;SDS011;11491;41.942;24.220;2023-11-21T01:20:38;9.15;;;5.50;;
22648;SDS011;11491;41.942;24.220;2023-11-21T01:23:06;9.93;;;6.38;;
22648;SDS011;11491;41.942;24.220;2023-11-21T01:25:33;8.73;;;4.97;;
22648;SDS011;11491;41.942;24.220;2023-11-21T01:27:59;8.50;;;4.68;;
22648;SDS011;11491;41.942;24.220;2023-11-21T01:30:26;9.25;;;4.43;;
22648;SDS011;11491;41.942;24.220;2023-11-21T01:32:53;8.25;;;5.18;;
22648;SDS011;11491;41.942;24.220;2023-11-21T01:35:20;6.80;;;4.40;;
22648;SDS011;11491;41.942;24.220;2023-11-21T01:37:46;10.00;;;4.85;;
22648;SDS011;11491;41.942;24.220;2023-11-21T01:40:15;12.13;;;5.97;;
22648;SDS011;11491;41.942;24.220;2023-11-21T01:42:42;14.02;;;7.93;;
22648;SDS011;11491;41.942;24.220;2023-11-21T01:45:10;11.85;;;7.70;;
22648;SDS011;11491;41.942;24.220;2023-11-21T01:47:37;11.02;;;6.40;;
22648;SDS011;11491;41.942;24.220;2023-11-21T01:50:06;8.18;;;5.60;;
22648;SDS011;11491;41.942;24.220;2023-11-21T01:52:37;5.68;;;4.15;;
22648;SDS011;11491;41.942;24.220;2023-11-21T01:55:05;5.45;;;3.63;;
22648;SDS011;11491;41.942;24.220;2023-11-21T01:57:36;3.75;;;2.35;;
22648;SDS011;11491;41.942;24.220;2023-11-21T02:00:04;4.72;;;3.17;;
22648;SDS011;11491;41.942;24.220;2023-11-21T02:02:41;5.03;;;2.83;;
22648;SDS011;11491;41.942;24.220;2023-11-21T02:05:09;4.82;;;3.10;;
22648;SDS011;11491;41.942;24.220;2023-11-21T02:07:37;6.70;;;4.93;;
22648;SDS011;11491;41.942;24.220;2023-11-21T02:10:05;6.55;;;3.88;;
22648;SDS011;11491;41.942;24.220;2023-11-21T02:12:32;7.13;;;4.20;;
22648;SDS011;11491;41.942;24.220;2023-11-21T02:15:01;7.90;;;4.45;;
22648;SDS011;11491;41.942;24.220;2023-11-21T02:17:30;6.40;;;4.20;;
22648;SDS011;11491;41.942;24.220;2023-11-21T02:19:57;7.88;;;4.53;;
22648;SDS011;11491;41.942;24.220;2023-11-21T02:22:25;6.22;;;4.50;;
22648;SDS011;11491;41.942;24.220;2023-11-21T02:24:58;7.07;;;4.50;;
22648;SDS011;11491;41.942;24.220;2023-11-21T02:27:25;6.45;;;4.53;;
22648;SDS011;11491;41.942;24.220;2023-11-21T02:29:53;5.07;;;3.58;;
22648;SDS011;11491;41.942;24.220;2023-11-21T02:32:19;4.03;;;2.92;;
22648;SDS011;11491;41.942;24.220;2023-11-21T02:34:48;3.97;;;3.00;;
22648;SDS011;11491;41.942;24.220;2023-11-21T02:37:15;4.63;;;3.00;;
22648;SDS011;11491;41.942;24.220;2023-11-21T02:39:41;3.95;;;2.88;;
22648;SDS011;11491;41.942;24.220;2023-11-21T02:42:09;4.90;;;2.55;;
22648;SDS011;11491;41.942;24.220;2023-11-21T02:44:36;4.10;;;2.45;;
22648;SDS011;11491;41.942;24.220;2023-11-21T02:47:03;2.55;;;1.98;;
22648;SDS011;11491;41.942;24.220;2023-11-21T02:49:31;3.70;;;2.13;;
22648;SDS011;11491;41.942;24.220;2023-11-21T02:51:59;3.30;;;2.00;;
22648;SDS011;11491;41.942;24.220;2023-11-21T02:54:26;2.65;;;1.50;;
22648;SDS011;11491;41.942;24.220;2023-11-21T02:56:53;2.60;;;1.77;;
22648;SDS011;11491;41.942;24.220;2023-11-21T02:59:21;4.43;;;2.13;;
22648;SDS011;11491;41.942;24.220;2023-11-21T03:01:48;3.25;;;2.25;;
22648;SDS011;11491;41.942;24.220;2023-11-21T03:04:15;4.38;;;2.30;;
22648;SDS011;11491;41.942;24.220;2023-11-21T03:06:42;2.92;;;2.00;;
22648;SDS011;11491;41.942;24.220;2023-11-21T03:09:09;4.25;;;3.42;;
22648;SDS011;11491;41.942;24.220;2023-11-21T03:11:37;4.70;;;2.83;;
22648;SDS011;11491;41.942;24.220;2023-11-21T03:14:03;4.57;;;3.50;;
22648;SDS011;11491;41.942;24.220;2023-11-21T03:16:32;5.00;;;3.80;;
22648;SDS011;11491;41.942;24.220;2023-11-21T03:18:59;4.97;;;4.10;;
22648;SDS011;11491;41.942;24.220;2023-11-21T03:21:25;5.68;;;3.75;;
22648;SDS011;11491;41.942;24.220;2023-11-21T03:23:52;5.78;;;4.13;;
22648;SDS011;11491;41.942;24.220;2023-11-21T03:26:19;4.70;;;3.83;;
22648;SDS011;11491;41.942;24.220;2023-11-21T03:28:45;5.60;;;3.00;;
22648;SDS011;11491;41.942;24.220;2023-11-21T03:31:12;4.68;;;2.92;;
22648;SDS011;11491;41.942;24.220;2023-11-21T03:33:43;6.53;;;4.53;;
22648;SDS011;11491;41.942;24.220;2023-11-21T03:36:10;4.18;;;3.38;;
22648;SDS011;11491;41.942;24.220;2023-11-21T03:38:37;4.10;;;3.50;;
22648;SDS011;11491;41.942;24.220;2023-11-21T03:41:05;4.55;;;3.33;;
22648;SDS011;11491;41.942;24.220;2023-11-21T03:43:31;4.68;;;3.63;;
22648;SDS011;11491;41.942;24.220;2023-11-21T03:45:58;4.45;;;3.50;;
22648;SDS011;11491;41.942;24.220;2023-11-21T03:48:25;5.68;;;3.55;;
22648;SDS011;11491;41.942;24.220;2023-11-21T03:50:53;3.90;;;2.88;;
22648;SDS011;11491;41.942;24.220;2023-11-21T03:53:20;4.63;;;3.00;;
22648;SDS011;11491;41.942;24.220;2023-11-21T03:55:46;3.65;;;3.00;;
22648;SDS011;11491;41.942;24.220;2023-11-21T03:58:14;4.00;;;3.03;;
22648;SDS011;11491;41.942;24.220;2023-11-21T04:00:41;7.15;;;4.60;;
22648;SDS011;11491;41.942;24.220;2023-11-21T04:03:07;4.57;;;3.35;;
22648;SDS011;11491;41.942;24.220;2023-11-21T04:05:34;5.32;;;3.53;;
22648;SDS011;11491;41.942;24.220;2023-11-21T04:08:02;4.97;;;3.45;;
22648;SDS011;11491;41.942;24.220;2023-11-21T04:10:29;7.32;;;3.97;;
22648;SDS011;11491;41.942;24.220;2023-11-21T04:12:56;6.30;;;4.43;;
22648;SDS011;11491;41.942;24.220;2023-11-21T04:15:23;8.18;;;6.38;;
22648;SDS011;11491;41.942;24.220;2023-11-21T04:17:50;13.13;;;10.32;;
22648;SDS011;11491;41.942;24.220;2023-11-21T04:20:16;11.10;;;8.80;;
22648;SDS011;11491;41.942;24.220;2023-11-21T04:22:44;10.60;;;8.32;;
22648;SDS011;11491;41.942;24.220;2023-11-21T04:25:14;10.45;;;8.35;;
22648;SDS011;11491;41.942;24.220;2023-11-21T04:27:41;12.43;;;8.80;;
22648;SDS011;11491;41.942;24.220;2023-11-21T04:30:09;13.35;;;10.60;;
22648;SDS011;11491;41.942;24.220;2023-11-21T04:32:36;11.60;;;9.32;;
22648;SDS011;11491;41.942;24.220;2023-11-21T04:35:04;12.60;;;9.85;;
22648;SDS011;11491;41.942;24.220;2023-11-21T04:37:31;17.60;;;11.27;;
22648;SDS011;11491;41.942;24.220;2023-11-21T04:39:58;11.63;;;8.98;;
22648;SDS011;11491;41.942;24.220;2023-11-21T04:42:26;14.02;;;8.80;;
22648;SDS011;11491;41.942;24.220;2023-11-21T04:44:54;13.98;;;9.57;;
22648;SDS011;11491;41.942;24.220;2023-11-21T04:47:20;22.02;;;15.32;;
22648;SDS011;11491;41.942;24.220;2023-11-21T04:49:47;12.18;;;9.50;;
22648;SDS011;11491;41.942;24.220;2023-11-21T04:52:14;17.85;;;11.32;;
22648;SDS011;11491;41.942;24.220;2023-11-21T04:54:41;20.98;;;14.38;;
22648;SDS011;11491;41.942;24.220;2023-11-21T04:57:08;30.30;;;17.20;;
22648;SDS011;11491;41.942;24.220;2023-11-21T04:59:36;18.15;;;11.95;;
22648;SDS011;11491;41.942;24.220;2023-11-21T05:02:03;21.20;;;13.27;;
22648;SDS011;11491;41.942;24.220;2023-11-21T05:04:30;60.90;;;35.90;;
22648;SDS011;11491;41.942;24.220;2023-11-21T05:06:57;57.50;;;34.38;;
22648;SDS011;11491;41.942;24.220;2023-11-21T05:09:23;109.15;;;65.13;;
22648;SDS011;11491;41.942;24.220;2023-11-21T05:11:50;49.72;;;32.90;;
22648;SDS011;11491;41.942;24.220;2023-11-21T05:14:18;36.50;;;24.67;;
22648;SDS011;11491;41.942;24.220;2023-11-21T05:16:47;26.13;;;18.27;;
22648;SDS011;11491;41.942;24.220;2023-11-21T05:19:15;40.30;;;25.35;;
22648;SDS011;11491;41.942;24.220;2023-11-21T05:21:42;63.03;;;39.85;;
22648;SDS011;11491;41.942;24.220;2023-11-21T05:24:09;82.88;;;52.08;;
22648;SDS011;11491;41.942;24.220;2023-11-21T05:26:36;63.47;;;40.42;;
22648;SDS011;11491;41.942;24.220;2023-11-21T05:29:03;55.55;;;33.75;;
22648;SDS011;11491;41.942;24.220;2023-11-21T05:31:30;37.78;;;25.15;;
22648;SDS011;11491;41.942;24.220;2023-11-21T05:33:58;36.97;;;24.10;;
22648;SDS011;11491;41.942;24.220;2023-11-21T05:36:25;44.80;;;28.65;;
22648;SDS011;11491;41.942;24.220;2023-11-21T05:38:52;50.78;;;32.95;;
22648;SDS011;11491;41.942;24.220;2023-11-21T05:41:18;51.58;;;32.47;;
22648;SDS011;11491;41.942;24.220;2023-11-21T05:43:46;50.17;;;32.20;;
22648;SDS011;11491;41.942;24.220;2023-11-21T05:46:13;54.47;;;38.17;;
22648;SDS011;11491;41.942;24.220;2023-11-21T05:48:39;85.55;;;59.90;;
22648;SDS011;11491;41.942;24.220;2023-11-21T05:51:08;150.13;;;101.10;;
22648;SDS011;11491;41.942;24.220;2023-11-21T05:53:37;207.05;;;141.13;;
22648;SDS011;11491;41.942;24.220;2023-11-21T05:56:04;142.57;;;99.22;;
22648;SDS011;11491;41.942;24.220;2023-11-21T05:58:31;120.93;;;83.97;;
22648;SDS011;11491;41.942;24.220;2023-11-21T06:00:58;115.50;;;79.18;;
22648;SDS011;11491;41.942;24.220;2023-11-21T06:03:24;111.28;;;76.65;;
22648;SDS011;11491;41.942;24.220;2023-11-21T06:05:51;96.45;;;66.85;;
22648;SDS011;11491;41.942;24.220;2023-11-21T06:08:20;92.63;;;66.43;;
22648;SDS011;11491;41.942;24.220;2023-11-21T06:10:47;76.55;;;52.10;;
22648;SDS011;11491;41.942;24.220;2023-11-21T06:13:14;77.07;;;55.40;;
22648;SDS011;11491;41.942;24.220;2023-11-21T06:15:41;91.35;;;63.00;;
22648;SDS011;11491;41.942;24.220;2023-11-21T06:18:08;79.22;;;55.38;;
22648;SDS011;11491;41.942;24.220;2023-11-21T06:20:36;140.02;;;93.63;;
22648;SDS011;11491;41.942;24.220;2023-11-21T06:23:03;132.20;;;92.03;;
22648;SDS011;11491;41.942;24.220;2023-11-21T06:25:32;137.02;;;98.82;;
22648;SDS011;11491;41.942;24.220;2023-11-21T06:28:01;116.03;;;81.95;;
22648;SDS011;11491;41.942;24.220;2023-11-21T06:30:28;109.90;;;77.88;;
22648;SDS011;11491;41.942;24.220;2023-11-21T06:32:55;96.10;;;69.78;;
22648;SDS011;11491;41.942;24.220;2023-11-21T06:35:22;97.50;;;69.13;;
22648;SDS011;11491;41.942;24.220;2023-11-21T06:37:48;102.00;;;68.57;;
22648;SDS011;11491;41.942;24.220;2023-11-21T06:40:16;104.97;;;74.60;;
22648;SDS011;11491;41.942;24.220;2023-11-21T06:42:46;97.82;;;72.53;;
22648;SDS011;11491;41.942;24.220;2023-11-21T06:45:13;65.65;;;49.10;;
22648;SDS011;11491;41.942;24.220;2023-11-21T06:47:40;108.25;;;74.43;;
22648;SDS011;11491;41.942;24.220;2023-11-21T06:50:07;70.18;;;52.88;;
22648;SDS011;11491;41.942;24.220;2023-11-21T06:52:34;80.45;;;59.28;;
22648;SDS011;11491;41.942;24.220;2023-11-21T06:55:01;132.50;;;90.45;;
22648;SDS011;11491;41.942;24.220;2023-11-21T06:57:33;153.50;;;104.78;;
22648;SDS011;11491;41.942;24.220;2023-11-21T07:00:01;332.58;;;229.60;;
22648;SDS011;11491;41.942;24.220;2023-11-21T07:02:28;236.10;;;158.77;;
22648;SDS011;11491;41.942;24.220;2023-11-21T07:04:55;80.32;;;58.40;;
22648;SDS011;11491;41.942;24.220;2023-11-21T07:07:22;105.25;;;80.00;;
22648;SDS011;11491;41.942;24.220;2023-11-21T07:09:48;91.07;;;68.47;;
22648;SDS011;11491;41.942;24.220;2023-11-21T07:12:17;89.93;;;68.60;;
22648;SDS011;11491;41.942;24.220;2023-11-21T07:14:43;88.68;;;66.63;;
22648;SDS011;11491;41.942;24.220;2023-11-21T07:17:11;91.35;;;68.25;;
22648;SDS011;11491;41.942;24.220;2023-11-21T07:19:38;115.70;;;89.47;;
22648;SDS011;11491;41.942;24.220;2023-11-21T07:22:06;99.38;;;77.78;;
22648;SDS011;11491;41.942;24.220;2023-11-21T07:24:33;47.78;;;39.40;;
22648;SDS011;11491;41.942;24.220;2023-11-21T07:27:01;68.53;;;50.90;;
22648;SDS011;11491;41.942;24.220;2023-11-21T07:29:29;83.88;;;65.22;;
22648;SDS011;11491;41.942;24.220;2023-11-21T07:31:56;89.75;;;68.18;;
22648;SDS011;11491;41.942;24.220;2023-11-21T07:34:24;78.45;;;58.70;;
22648;SDS011;11491;41.942;24.220;2023-11-21T07:36:51;74.60;;;56.10;;
22648;SDS011;11491;41.942;24.220;2023-11-21T07:39:18;66.68;;;50.30;;
22648;SDS011;11491;41.942;24.220;2023-11-21T07:41:44;78.57;;;60.60;;
22648;SDS011;11491;41.942;24.220;2023-11-21T07:44:13;113.18;;;79.30;;
22648;SDS011;11491;41.942;24.220;2023-11-21T07:46:40;104.10;;;79.85;;
22648;SDS011;11491;41.942;24.220;2023-11-21T07:49:07;104.28;;;78.28;;
22648;SDS011;11491;41.942;24.220;2023-11-21T07:51:35;132.07;;;96.50;;
22648;SDS011;11491;41.942;24.220;2023-11-21T07:54:02;182.82;;;126.50;;
22648;SDS011;11491;41.942;24.220;2023-11-21T07:56:29;170.70;;;122.55;;
22648;SDS011;11491;41.942;24.220;2023-11-21T07:58:56;147.73;;;104.43;;
22648;SDS011;11491;41.942;24.220;2023-11-21T08:01:22;130.13;;;96.63;;
22648;SDS011;11491;41.942;24.220;2023-11-21T08:03:49;126.55;;;94.78;;
22648;SDS011;11491;41.942;24.220;2023-11-21T08:06:17;57.83;;;40.50;;
22648;SDS011;11491;41.942;24.220;2023-11-21T08:08:45;14.85;;;9.18;;
22648;SDS011;11491;41.942;24.220;2023-11-21T08:11:12;11.23;;;6.93;;
22648;SDS011;11491;41.942;24.220;2023-11-21T08:13:39;4.00;;;2.65;;
22648;SDS011;11491;41.942;24.220;2023-11-21T08:16:06;1.52;;;1.08;;
22648;SDS011;11491;41.942;24.220;2023-11-21T08:18:33;8.77;;;4.65;;
22648;SDS011;11491;41.942;24.220;2023-11-21T08:21:00;3.60;;;2.42;;
22648;SDS011;11491;41.942;24.220;2023-11-21T08:23:28;4.03;;;2.58;;
22648;SDS011;11491;41.942;24.220;2023-11-21T08:25:56;1.40;;;1.10;;
22648;SDS011;11491;41.942;24.220;2023-11-21T08:28:23;0.60;;;0.40;;
22648;SDS011;11491;41.942;24.220;2023-11-21T08:30:50;4.75;;;2.33;;
22648;SDS011;11491;41.942;24.220;2023-11-21T08:33:17;7.97;;;5.68;;
22648;SDS011;11491;41.942;24.220;2023-11-21T08:35:44;2.42;;;1.75;;
22648;SDS011;11491;41.942;24.220;2023-11-21T08:38:11;5.55;;;3.40;;
22648;SDS011;11491;41.942;24.220;2023-11-21T08:40:38;21.90;;;14.50;;
22648;SDS011;11491;41.942;24.220;2023-11-21T08:43:06;3.90;;;2.88;;
22648;SDS011;11491;41.942;24.220;2023-11-21T08:45:33;6.50;;;4.47;;
22648;SDS011;11491;41.942;24.220;2023-11-21T08:48:00;5.88;;;2.92;;
22648;SDS011;11491;41.942;24.220;2023-11-21T08:50:27;2.08;;;1.40;;
22648;SDS011;11491;41.942;24.220;2023-11-21T08:52:54;8.85;;;5.93;;
22648;SDS011;11491;41.942;24.220;2023-11-21T08:55:21;4.95;;;3.10;;
22648;SDS011;11491;41.942;24.220;2023-11-21T08:57:48;3.85;;;2.78;;
22648;SDS011;11491;41.942;24.220;2023-11-21T09:00:16;7.55;;;5.25;;
22648;SDS011;11491;41.942;24.220;2023-11-21T09:02:44;8.32;;;4.45;;
22648;SDS011;11491;41.942;24.220;2023-11-21T09:05:11;10.27;;;6.25;;
22648;SDS011;11491;41.942;24.220;2023-11-21T09:07:39;10.63;;;5.88;;
22648;SDS011;11491;41.942;24.220;2023-11-21T09:10:07;18.52;;;11.38;;
22648;SDS011;11491;41.942;24.220;2023-11-21T09:12:35;6.03;;;3.83;;
22648;SDS011;11491;41.942;24.220;2023-11-21T09:15:02;8.38;;;5.53;;
22648;SDS011;11491;41.942;24.220;2023-11-21T09:17:31;9.40;;;5.65;;
22648;SDS011;11491;41.942;24.220;2023-11-21T09:19:59;4.93;;;3.05;;
22648;SDS011;11491;41.942;24.220;2023-11-21T09:22:26;4.75;;;2.78;;
22648;SDS011;11491;41.942;24.220;2023-11-21T09:24:54;11.02;;;7.18;;
22648;SDS011;11491;41.942;24.220;2023-11-21T09:27:22;4.57;;;2.00;;
22648;SDS011;11491;41.942;24.220;2023-11-21T09:29:50;2.75;;;1.55;;
22648;SDS011;11491;41.942;24.220;2023-11-21T09:32:18;2.97;;;0.88;;
22648;SDS011;11491;41.942;24.220;2023-11-21T09:34:47;3.70;;;1.88;;
22648;SDS011;11491;41.942;24.220;2023-11-21T09:37:14;13.30;;;6.97;;
22648;SDS011;11491;41.942;24.220;2023-11-21T09:39:41;2.15;;;1.27;;
22648;SDS011;11491;41.942;24.220;2023-11-21T09:42:08;3.10;;;1.92;;
22648;SDS011;11491;41.942;24.220;2023-11-21T09:44:40;11.57;;;5.95;;
22648;SDS011;11491;41.942;24.220;2023-11-21T09:47:14;5.75;;;3.97;;
22648;SDS011;11491;41.942;24.220;2023-11-21T09:49:42;5.55;;;3.10;;
22648;SDS011;11491;41.942;24.220;2023-11-21T09:52:17;5.00;;;2.20;;
22648;SDS011;11491;41.942;24.220;2023-11-21T09:54:50;6.47;;;3.08;;
22648;SDS011;11491;41.942;24.220;2023-11-21T09:57:19;3.70;;;2.25;;
22648;SDS011;11491;41.942;24.220;2023-11-21T09:59:47;3.33;;;1.58;;
22648;SDS011;11491;41.942;24.220;2023-11-21T10:02:18;1.23;;;1.02;;
22648;SDS011;11491;41.942;24.220;2023-11-21T10:04:46;1.25;;;0.93;;
22648;SDS011;11491;41.942;24.220;2023-11-21T10:07:13;3.10;;;1.73;;
22648;SDS011;11491;41.942;24.220;2023-11-21T10:09:45;1.50;;;1.15;;
22648;SDS011;11491;41.942;24.220;2023-11-21T10:12:13;4.55;;;2.22;;
22648;SDS011;11491;41.942;24.220;2023-11-21T10:14:41;4.70;;;2.63;;
22648;SDS011;11491;41.942;24.220;2023-11-21T10:17:09;1.67;;;1.10;;
22648;SDS011;11491;41.942;24.220;2023-11-21T10:19:37;3.45;;;1.92;;
22648;SDS011;11491;41.942;24.220;2023-11-21T10:22:05;2.95;;;1.85;;
22648;SDS011;11491;41.942;24.220;2023-11-21T10:24:33;13.85;;;5.18;;
22648;SDS011;11491;41.942;24.220;2023-11-21T10:27:00;6.10;;;4.10;;
22648;SDS011;11491;41.942;24.220;2023-11-21T10:29:28;3.25;;;2.10;;
22648;SDS011;11491;41.942;24.220;2023-11-21T10:31:55;4.70;;;2.60;;
22648;SDS011;11491;41.942;24.220;2023-11-21T10:34:24;10.95;;;3.55;;
22648;SDS011;11491;41.942;24.220;2023-11-21T10:36:52;5.15;;;2.28;;
22648;SDS011;11491;41.942;24.220;2023-11-21T10:39:22;8.85;;;3.90;;
22648;SDS011;11491;41.942;24.220;2023-11-21T10:41:54;6.82;;;3.30;;
22648;SDS011;11491;41.942;24.220;2023-11-21T10:44:21;5.03;;;2.88;;
22648;SDS011;11491;41.942;24.220;2023-11-21T10:46:49;4.97;;;2.70;;
22648;SDS011;11491;41.942;24.220;2023-11-21T10:49:17;6.07;;;4.38;;
22648;SDS011;11491;41.942;24.220;2023-11-21T10:51:44;7.65;;;3.97;;
22648;SDS011;11491;41.942;24.220;2023-11-21T10:54:16;3.83;;;1.75;;
22648;SDS011;11491;41.942;24.220;2023-11-21T10:56:43;3.28;;;2.13;;
22648;SDS011;11491;41.942;24.220;2023-11-21T10:59:13;5.53;;;2.97;;
22648;SDS011;11491;41.942;24.220;2023-11-21T11:01:41;3.92;;;2.75;;
22648;SDS011;11491;41.942;24.220;2023-11-21T11:04:11;4.05;;;2.17;;
22648;SDS011;11491;41.942;24.220;2023-11-21T11:06:41;2.65;;;1.70;;
22648;SDS011;11491;41.942;24.220;2023-11-21T11:09:09;3.13;;;2.22;;
22648;SDS011;11491;41.942;24.220;2023-11-21T11:11:39;3.88;;;2.80;;
22648;SDS011;11491;41.942;24.220;2023-11-21T11:14:09;4.25;;;3.10;;
22648;SDS011;11491;41.942;24.220;2023-11-21T11:16:39;5.20;;;2.22;;
22648;SDS011;11491;41.942;24.220;2023-11-21T11:19:08;2.78;;;1.92;;
22648;SDS011;11491;41.942;24.220;2023-11-21T11:21:37;3.53;;;2.53;;
22648;SDS011;11491;41.942;24.220;2023-11-21T11:27:21;4.82;;;2.92;;
22648;SDS011;11491;41.942;24.220;2023-11-21T11:30:08;12.93;;;8.25;;
22648;SDS011;11491;41.942;24.220;2023-11-21T11:32:47;2.95;;;2.50;;
22648;SDS011;11491;41.942;24.220;2023-11-21T11:35:23;13.07;;;9.25;;
22648;SDS011;11491;41.942;24.220;2023-11-21T11:37:58;8.45;;;5.60;;
22648;SDS011;11491;41.942;24.220;2023-11-21T11:40:26;8.75;;;4.32;;
22648;SDS011;11491;41.942;24.220;2023-11-21T11:43:05;4.30;;;2.65;;
22648;SDS011;11491;41.942;24.220;2023-11-21T11:45:33;9.52;;;5.35;;
22648;SDS011;11491;41.942;24.220;2023-11-21T11:48:05;16.65;;;9.75;;
22648;SDS011;11491;41.942;24.220;2023-11-21T11:50:32;11.85;;;8.07;;
22648;SDS011;11491;41.942;24.220;2023-11-21T11:53:11;6.35;;;3.97;;
22648;SDS011;11491;41.942;24.220;2023-11-21T11:55:39;13.15;;;8.30;;
22648;SDS011;11491;41.942;24.220;2023-11-21T11:58:06;5.80;;;3.35;;
22648;SDS011;11491;41.942;24.220;2023-11-21T12:00:33;7.55;;;5.47;;
22648;SDS011;11491;41.942;24.220;2023-11-21T12:03:04;6.95;;;4.20;;
22648;SDS011;11491;41.942;24.220;2023-11-21T12:05:32;15.00;;;9.30;;
22648;SDS011;11491;41.942;24.220;2023-11-21T12:08:02;16.83;;;11.13;;
22648;SDS011;11491;41.942;24.220;2023-11-21T12:10:31;19.42;;;13.23;;
22648;SDS011;11491;41.942;24.220;2023-11-21T12:12:58;4.35;;;2.28;;
22648;SDS011;11491;41.942;24.220;2023-11-21T12:15:26;13.20;;;9.95;;
22648;SDS011;11491;41.942;24.220;2023-11-21T12:17:54;8.52;;;6.43;;
22648;SDS011;11491;41.942;24.220;2023-11-21T12:20:23;6.10;;;4.35;;
22648;SDS011;11491;41.942;24.220;2023-11-21T12:22:51;11.70;;;7.03;;
22648;SDS011;11491;41.942;24.220;2023-11-21T12:25:19;5.72;;;4.22;;
22648;SDS011;11491;41.942;24.220;2023-11-21T12:27:47;9.40;;;5.78;;
22648;SDS011;11491;41.942;24.220;2023-11-21T12:30:15;11.27;;;7.75;;
22648;SDS011;11491;41.942;24.220;2023-11-21T12:32:44;10.23;;;6.75;;
22648;SDS011;11491;41.942;24.220;2023-11-21T12:35:12;12.52;;;8.00;;
22648;SDS011;11491;41.942;24.220;2023-11-21T12:37:41;19.33;;;10.73;;
22648;SDS011;11491;41.942;24.220;2023-11-21T12:40:09;7.28;;;4.90;;
22648;SDS011;11491;41.942;24.220;2023-11-21T12:42:39;13.73;;;7.40;;
22648;SDS011;11491;41.942;24.220;2023-11-21T12:45:10;2.97;;;1.90;;
22648;SDS011;11491;41.942;24.220;2023-11-21T12:47:45;5.75;;;3.35;;
22648;SDS011;11491;41.942;24.220;2023-11-21T12:50:13;8.05;;;6.82;;
22648;SDS011;11491;41.942;24.220;2023-11-21T12:52:42;4.07;;;1.90;;
22648;SDS011;11491;41.942;24.220;2023-11-21T12:55:15;5.75;;;3.50;;
22648;SDS011;11491;41.942;24.220;2023-11-21T12:57:43;5.95;;;3.72;;
22648;SDS011;11491;41.942;24.220;2023-11-21T13:00:11;5.72;;;2.13;;
22648;SDS011;11491;41.942;24.220;2023-11-21T13:02:51;13.02;;;6.90;;
22648;SDS011;11491;41.942;24.220;2023-11-21T13:05:26;7.18;;;4.93;;
22648;SDS011;11491;41.942;24.220;2023-11-21T13:07:55;3.80;;;2.40;;
22648;SDS011;11491;41.942;24.220;2023-11-21T13:10:23;4.68;;;2.88;;
22648;SDS011;11491;41.942;24.220;2023-11-21T13:12:54;3.38;;;1.98;;
22648;SDS011;11491;41.942;24.220;2023-11-21T13:15:23;9.48;;;3.50;;
22648;SDS011;11491;41.942;24.220;2023-11-21T13:17:50;3.85;;;2.55;;
22648;SDS011;11491;41.942;24.220;2023-11-21T13:20:18;5.75;;;2.60;;
22648;SDS011;11491;41.942;24.220;2023-11-21T13:22:49;3.88;;;2.20;;
22648;SDS011;11491;41.942;24.220;2023-11-21T13:25:20;6.82;;;4.13;;
22648;SDS011;11491;41.942;24.220;2023-11-21T13:27:47;7.43;;;5.35;;
22648;SDS011;11491;41.942;24.220;2023-11-21T13:30:15;9.43;;;5.65;;
22648;SDS011;11491;41.942;24.220;2023-11-21T13:32:42;9.98;;;6.55;;
22648;SDS011;11491;41.942;24.220;2023-11-21T13:35:11;6.22;;;3.92;;
22648;SDS011;11491;41.942;24.220;2023-11-21T13:37:46;12.23;;;7.85;;
22648;SDS011;11491;41.942;24.220;2023-11-21T13:40:17;5.90;;;2.70;;
22648;SDS011;11491;41.942;24.220;2023-11-21T13:42:50;9.82;;;5.18;;
22648;SDS011;11491;41.942;24.220;2023-11-21T13:45:20;19.45;;;12.30;;
22648;SDS011;11491;41.942;24.220;2023-11-21T13:47:48;11.07;;;6.97;;
22648;SDS011;11491;41.942;24.220;2023-11-21T13:50:17;10.15;;;5.95;;
22648;SDS011;11491;41.942;24.220;2023-11-21T13:52:48;15.38;;;10.38;;
22648;SDS011;11491;41.942;24.220;2023-11-21T13:55:16;4.50;;;2.75;;
22648;SDS011;11491;41.942;24.220;2023-11-21T13:57:46;8.38;;;5.35;;
22648;SDS011;11491;41.942;24.220;2023-11-21T14:00:15;6.55;;;4.38;;
22648;SDS011;11491;41.942;24.220;2023-11-21T14:02:56;4.78;;;2.60;;
22648;SDS011;11491;41.942;24.220;2023-11-21T14:05:26;62.65;;;25.15;;
22648;SDS011;11491;41.942;24.220;2023-11-21T14:07:54;13.88;;;7.90;;
22648;SDS011;11491;41.942;24.220;2023-11-21T14:10:27;34.17;;;20.03;;
22648;SDS011;11491;41.942;24.220;2023-11-21T14:13:03;13.95;;;9.75;;
22648;SDS011;11491;41.942;24.220;2023-11-21T14:15:30;101.22;;;89.95;;
22648;SDS011;11491;41.942;24.220;2023-11-21T14:17:58;18.00;;;13.00;;
22648;SDS011;11491;41.942;24.220;2023-11-21T14:20:27;83.97;;;51.17;;
22648;SDS011;11491;41.942;24.220;2023-11-21T14:22:55;4.90;;;2.60;;
22648;SDS011;11491;41.942;24.220;2023-11-21T14:25:22;9.20;;;6.65;;
22648;SDS011;11491;41.942;24.220;2023-11-21T14:27:49;44.88;;;24.17;;
22648;SDS011;11491;41.942;24.220;2023-11-21T14:30:17;22.65;;;16.58;;
22648;SDS011;11491;41.942;24.220;2023-11-21T14:32:47;46.13;;;35.88;;